sensor_id;sensor_type;location;lat;lon;timestamp;pressure;altitude;pressure_sealevel;temperature;humidity
9009;BME280;62813;51.424;6.762;2022-12-15T00:01:53;100428.94;;;-3.49;75.02
9009;BME280;62813;51.424;6.762;2022-12-15T00:04:38;100445.88;;;-3.47;75.02
9009;BME280;62813;51.424;6.762;2022-12-15T00:07:23;100436.56;;;-3.49;75.21
9009;BME280;62813;51.424;6.762;2022-12-15T00:10:08;100439.94;;;-3.50;74.99
9009;BME280;62813;51.424;6.762;2022-12-15T00:12:54;100452.53;;;-3.55;75.19
9009;BME280;62813;51.424;6.762;2022-12-15T00:15:39;100440.69;;;-3.56;75.05
9009;BME280;62813;51.424;6.762;2022-12-15T00:18:24;100441.56;;;-3.55;75.16
9009;BME280;62813;51.424;6.762;2022-12-15T00:21:09;100436.47;;;-3.55;75.00
9009;BME280;62813;51.424;6.762;2022-12-15T00:23:53;100439.84;;;-3.56;75.24
9009;BME280;62813;51.424;6.762;2022-12-15T00:26:38;100455.06;;;-3.56;74.97
9009;BME280;62813;51.424;6.762;2022-12-15T00:29:23;100450.00;;;-3.58;74.96
9009;BME280;62813;51.424;6.762;2022-12-15T00:32:08;100445.69;;;-3.62;74.96
9009;BME280;62813;51.424;6.762;2022-12-15T00:34:53;100448.22;;;-3.66;75.14
9009;BME280;62813;51.424;6.762;2022-12-15T00:37:38;100456.63;;;-3.67;74.99
9009;BME280;62813;51.424;6.762;2022-12-15T00:40:26;100454.06;;;-3.70;75.39
9009;BME280;62813;51.424;6.762;2022-12-15T00:42:52;100458.28;;;-3.73;75.03
9009;BME280;62813;51.424;6.762;2022-12-15T00:45:19;100459.91;;;-3.75;75.20
9009;BME280;62813;51.424;6.762;2022-12-15T00:47:45;100454.84;;;-3.75;75.10
9009;BME280;62813;51.424;6.762;2022-12-15T00:50:12;100451.44;;;-3.77;75.22
9009;BME280;62813;51.424;6.762;2022-12-15T00:52:57;100452.28;;;-3.78;75.17
9009;BME280;62813;51.424;6.762;2022-12-15T00:55:42;100453.91;;;-3.81;75.15
9009;BME280;62813;51.424;6.762;2022-12-15T00:58:27;100460.66;;;-3.83;75.42
9009;BME280;62813;51.424;6.762;2022-12-15T01:01:12;100463.22;;;-3.82;75.57
9009;BME280;62813;51.424;6.762;2022-12-15T01:03:57;100466.63;;;-3.80;75.24
9009;BME280;62813;51.424;6.762;2022-12-15T01:06:43;100465.81;;;-3.79;75.45
9009;BME280;62813;51.424;6.762;2022-12-15T01:09:28;100465.72;;;-3.86;75.09
9009;BME280;62813;51.424;6.762;2022-12-15T01:12:13;100466.56;;;-3.86;75.35
9009;BME280;62813;51.424;6.762;2022-12-15T01:14:59;100474.09;;;-3.89;75.23
9009;BME280;62813;51.424;6.762;2022-12-15T01:17:46;100469.94;;;-3.87;75.67
9009;BME280;62813;51.424;6.762;2022-12-15T01:20:31;100459.81;;;-3.84;75.56
9009;BME280;62813;51.424;6.762;2022-12-15T01:23:00;100454.72;;;-3.87;75.17
9009;BME280;62813;51.424;6.762;2022-12-15T01:25:26;100460.63;;;-3.88;75.15
9009;BME280;62813;51.424;6.762;2022-12-15T01:27:53;100469.09;;;-3.84;75.44
9009;BME280;62813;51.424;6.762;2022-12-15T01:30:24;100469.09;;;-3.84;75.19
9009;BME280;62813;51.424;6.762;2022-12-15T01:32:52;100478.41;;;-3.82;75.37
9009;BME280;62813;51.424;6.762;2022-12-15T01:35:19;100475.09;;;-3.81;75.42
9009;BME280;62813;51.424;6.762;2022-12-15T01:37:46;100477.63;;;-3.81;75.18
9009;BME280;62813;51.424;6.762;2022-12-15T01:40:17;100469.94;;;-3.87;75.36
9009;BME280;62813;51.424;6.762;2022-12-15T01:43:03;100475.78;;;-3.89;75.55
9009;BME280;62813;51.424;6.762;2022-12-15T01:48:44;100486.78;;;-3.89;76.19
9009;BME280;62813;51.424;6.762;2022-12-15T01:54:24;100497.66;;;-3.97;76.00
9009;BME280;62813;51.424;6.762;2022-12-15T01:56:52;100502.72;;;-3.97;76.57
9009;BME280;62813;51.424;6.762;2022-12-15T01:59:24;100500.28;;;-3.93;76.48
9009;BME280;62813;51.424;6.762;2022-12-15T02:01:52;100499.44;;;-3.90;76.55
9009;BME280;62813;51.424;6.762;2022-12-15T02:04:20;100503.66;;;-3.91;76.41
9009;BME280;62813;51.424;6.762;2022-12-15T02:06:48;100515.50;;;-3.90;76.58
9009;BME280;62813;51.424;6.762;2022-12-15T02:09:16;100513.78;;;-3.94;76.56
9009;BME280;62813;51.424;6.762;2022-12-15T02:15:07;100515.41;;;-3.96;76.79
9009;BME280;62813;51.424;6.762;2022-12-15T02:26:18;100516.34;;;-3.91;77.14
9009;BME280;62813;51.424;6.762;2022-12-15T02:34:52;100531.38;;;-4.03;77.27
9009;BME280;62813;51.424;6.762;2022-12-15T02:37:26;100534.75;;;-4.04;77.94
9009;BME280;62813;51.424;6.762;2022-12-15T02:39:55;100541.50;;;-4.05;77.83
9009;BME280;62813;51.424;6.762;2022-12-15T02:42:22;100542.41;;;-4.01;77.82
9009;BME280;62813;51.424;6.762;2022-12-15T02:44:53;100536.50;;;-4.00;77.77
9009;BME280;62813;51.424;6.762;2022-12-15T02:55:21;100540.72;;;-4.02;77.89
9009;BME280;62813;51.424;6.762;2022-12-15T03:00:39;100551.66;;;-4.03;77.83
9009;BME280;62813;51.424;6.762;2022-12-15T03:03:07;100551.63;;;-4.05;77.69
9009;BME280;62813;51.424;6.762;2022-12-15T03:05:34;100543.09;;;-4.11;77.63
9009;BME280;62813;51.424;6.762;2022-12-15T03:08:01;100546.50;;;-4.09;78.16
9009;BME280;62813;51.424;6.762;2022-12-15T03:10:27;100550.81;;;-4.04;77.93
9009;BME280;62813;51.424;6.762;2022-12-15T03:12:54;100551.59;;;-4.08;78.03
9009;BME280;62813;51.424;6.762;2022-12-15T03:15:21;100543.91;;;-4.12;78.04
9009;BME280;62813;51.424;6.762;2022-12-15T03:17:47;100555.72;;;-4.14;78.32
9009;BME280;62813;51.424;6.762;2022-12-15T03:20:14;100559.13;;;-4.12;78.41
9009;BME280;62813;51.424;6.762;2022-12-15T03:22:41;100568.38;;;-4.16;78.21
9009;BME280;62813;51.424;6.762;2022-12-15T03:25:08;100569.25;;;-4.14;78.17
9009;BME280;62813;51.424;6.762;2022-12-15T03:27:34;100571.78;;;-4.14;78.38
9009;BME280;62813;51.424;6.762;2022-12-15T03:30:01;100579.41;;;-4.12;78.52
9009;BME280;62813;51.424;6.762;2022-12-15T03:32:28;100571.78;;;-4.14;78.64
9009;BME280;62813;51.424;6.762;2022-12-15T03:34:55;100577.72;;;-4.10;78.75
9009;BME280;62813;51.424;6.762;2022-12-15T03:37:21;100576.94;;;-4.08;78.70
9009;BME280;62813;51.424;6.762;2022-12-15T03:39:48;100573.59;;;-4.05;78.71
9009;BME280;62813;51.424;6.762;2022-12-15T03:42:14;100570.19;;;-4.07;78.44
9009;BME280;62813;51.424;6.762;2022-12-15T03:45:01;100571.88;;;-4.08;78.37
9009;BME280;62813;51.424;6.762;2022-12-15T03:47:28;100569.28;;;-4.09;78.08
9009;BME280;62813;51.424;6.762;2022-12-15T03:49:54;100570.13;;;-4.10;78.13
9009;BME280;62813;51.424;6.762;2022-12-15T03:52:21;100569.25;;;-4.12;78.04
9009;BME280;62813;51.424;6.762;2022-12-15T03:54:48;100570.97;;;-4.11;78.30
9009;BME280;62813;51.424;6.762;2022-12-15T03:57:17;100574.38;;;-4.09;78.23
9009;BME280;62813;51.424;6.762;2022-12-15T03:59:43;100580.22;;;-4.15;78.03
9009;BME280;62813;51.424;6.762;2022-12-15T04:02:10;100573.38;;;-4.20;78.13
9009;BME280;62813;51.424;6.762;2022-12-15T04:04:37;100586.84;;;-4.23;78.32
9009;BME280;62813;51.424;6.762;2022-12-15T04:07:04;100584.31;;;-4.23;78.23
9009;BME280;62813;51.424;6.762;2022-12-15T04:09:30;100588.56;;;-4.22;77.96
9009;BME280;62813;51.424;6.762;2022-12-15T04:11:57;100585.09;;;-4.25;78.05
9009;BME280;62813;51.424;6.762;2022-12-15T04:14:24;100581.72;;;-4.26;78.42
9009;BME280;62813;51.424;6.762;2022-12-15T04:16:50;100577.44;;;-4.30;78.35
9009;BME280;62813;51.424;6.762;2022-12-15T04:19:17;100581.69;;;-4.28;78.37
9009;BME280;62813;51.424;6.762;2022-12-15T04:22:02;100585.09;;;-4.27;78.35
9009;BME280;62813;51.424;6.762;2022-12-15T04:24:31;100585.94;;;-4.27;78.31
9009;BME280;62813;51.424;6.762;2022-12-15T04:27:17;100585.06;;;-4.29;78.21
9009;BME280;62813;51.424;6.762;2022-12-15T04:30:02;100578.31;;;-4.28;78.34
9009;BME280;62813;51.424;6.762;2022-12-15T04:32:48;100583.38;;;-4.30;78.29
9009;BME280;62813;51.424;6.762;2022-12-15T04:35:34;100578.22;;;-4.33;78.28
9009;BME280;62813;51.424;6.762;2022-12-15T04:38:19;100585.84;;;-4.31;78.36
9009;BME280;62813;51.424;6.762;2022-12-15T04:41:17;100588.38;;;-4.31;78.36
9009;BME280;62813;51.424;6.762;2022-12-15T04:44:03;100591.72;;;-4.34;78.42
9009;BME280;62813;51.424;6.762;2022-12-15T04:46:49;100604.44;;;-4.31;78.57
9009;BME280;62813;51.424;6.762;2022-12-15T04:49:34;100601.09;;;-4.30;78.56
9009;BME280;62813;51.424;6.762;2022-12-15T04:52:19;100591.75;;;-4.31;78.41
9009;BME280;62813;51.424;6.762;2022-12-15T04:55:05;100600.09;;;-4.38;78.21
9009;BME280;62813;51.424;6.762;2022-12-15T04:57:50;100599.28;;;-4.37;78.51
9009;BME280;62813;51.424;6.762;2022-12-15T05:00:36;100610.28;;;-4.36;78.62
9009;BME280;62813;51.424;6.762;2022-12-15T05:03:22;100601.81;;;-4.37;78.61
9009;BME280;62813;51.424;6.762;2022-12-15T05:06:09;100601.78;;;-4.38;78.42
9009;BME280;62813;51.424;6.762;2022-12-15T05:08:54;100608.47;;;-4.42;78.23
9009;BME280;62813;51.424;6.762;2022-12-15T05:11:39;100608.50;;;-4.40;78.74
9009;BME280;62813;51.424;6.762;2022-12-15T05:14:24;100615.28;;;-4.38;78.69
9009;BME280;62813;51.424;6.762;2022-12-15T05:17:09;100609.44;;;-4.35;78.45
9009;BME280;62813;51.424;6.762;2022-12-15T05:19:55;100604.31;;;-4.38;78.37
9009;BME280;62813;51.424;6.762;2022-12-15T05:22:40;100607.69;;;-4.38;78.23
9009;BME280;62813;51.424;6.762;2022-12-15T05:25:25;100611.16;;;-4.34;78.69
9009;BME280;62813;51.424;6.762;2022-12-15T05:28:10;100611.16;;;-4.33;78.54
9009;BME280;62813;51.424;6.762;2022-12-15T05:30:55;100617.06;;;-4.34;78.40
9009;BME280;62813;51.424;6.762;2022-12-15T05:33:41;100617.03;;;-4.37;78.43
9009;BME280;62813;51.424;6.762;2022-12-15T05:36:08;100623.69;;;-4.42;78.37
9009;BME280;62813;51.424;6.762;2022-12-15T05:38:35;100637.19;;;-4.43;78.59
9009;BME280;62813;51.424;6.762;2022-12-15T05:41:01;100638.88;;;-4.43;78.48
9009;BME280;62813;51.424;6.762;2022-12-15T05:43:30;100637.19;;;-4.43;78.57
9009;BME280;62813;51.424;6.762;2022-12-15T05:46:02;100633.84;;;-4.39;78.58
9009;BME280;62813;51.424;6.762;2022-12-15T05:48:29;100639.69;;;-4.44;78.62
9009;BME280;62813;51.424;6.762;2022-12-15T05:50:56;100642.25;;;-4.43;78.49
9009;BME280;62813;51.424;6.762;2022-12-15T05:53:22;100645.50;;;-4.50;78.94
9009;BME280;62813;51.424;6.762;2022-12-15T05:55:49;100642.97;;;-4.50;79.27
9009;BME280;62813;51.424;6.762;2022-12-15T05:58:15;100657.31;;;-4.50;79.19
9009;BME280;62813;51.424;6.762;2022-12-15T06:00:42;100647.13;;;-4.52;78.95
9009;BME280;62813;51.424;6.762;2022-12-15T06:03:08;100659.00;;;-4.51;79.17
9009;BME280;62813;51.424;6.762;2022-12-15T06:05:36;100656.47;;;-4.49;79.10
9009;BME280;62813;51.424;6.762;2022-12-15T06:08:04;100663.16;;;-4.53;79.07
9009;BME280;62813;51.424;6.762;2022-12-15T06:10:30;100664.81;;;-4.55;78.98
9009;BME280;62813;51.424;6.762;2022-12-15T06:12:57;100668.19;;;-4.56;79.13
9009;BME280;62813;51.424;6.762;2022-12-15T06:15:24;100663.13;;;-4.56;79.36
9009;BME280;62813;51.424;6.762;2022-12-15T06:17:50;100663.16;;;-4.53;79.54
9009;BME280;62813;51.424;6.762;2022-12-15T06:20:21;100661.47;;;-4.52;79.36
9009;BME280;62813;51.424;6.762;2022-12-15T06:22:48;100659.00;;;-4.51;79.59
9009;BME280;62813;51.424;6.762;2022-12-15T06:27:43;100670.13;;;-4.43;80.00
9009;BME280;62813;51.424;6.762;2022-12-15T06:30:09;100666.88;;;-4.36;80.24
9009;BME280;62813;51.424;6.762;2022-12-15T06:32:36;100673.78;;;-4.25;80.38
9009;BME280;62813;51.424;6.762;2022-12-15T06:35:02;100671.34;;;-4.21;80.68
9009;BME280;62813;51.424;6.762;2022-12-15T06:37:29;100669.81;;;-4.13;80.65
9009;BME280;62813;51.424;6.762;2022-12-15T06:39:55;100659.69;;;-4.10;80.65
9009;BME280;62813;51.424;6.762;2022-12-15T06:42:22;100670.78;;;-4.03;80.71
9009;BME280;62813;51.424;6.762;2022-12-15T06:44:49;100666.56;;;-4.04;80.54
9009;BME280;62813;51.424;6.762;2022-12-15T06:47:15;100662.34;;;-4.04;80.42
9009;BME280;62813;51.424;6.762;2022-12-15T06:49:42;100666.63;;;-4.01;80.43
9009;BME280;62813;51.424;6.762;2022-12-15T06:52:08;100654.72;;;-4.04;80.50
9009;BME280;62813;51.424;6.762;2022-12-15T06:54:35;100669.06;;;-4.07;80.16
9009;BME280;62813;51.424;6.762;2022-12-15T06:57:01;100668.25;;;-4.03;80.85
9009;BME280;62813;51.424;6.762;2022-12-15T06:59:28;100666.63;;;-4.01;80.74
9009;BME280;62813;51.424;6.762;2022-12-15T07:01:54;100664.13;;;-3.98;80.40
9009;BME280;62813;51.424;6.762;2022-12-15T07:04:21;100670.88;;;-3.98;80.34
9009;BME280;62813;51.424;6.762;2022-12-15T07:06:48;100675.97;;;-3.97;80.61
9009;BME280;62813;51.424;6.762;2022-12-15T07:09:14;100671.59;;;-4.06;80.62
9009;BME280;62813;51.424;6.762;2022-12-15T07:11:42;100681.78;;;-4.03;80.42
9009;BME280;62813;51.424;6.762;2022-12-15T07:14:09;100681.78;;;-4.03;80.53
9009;BME280;62813;51.424;6.762;2022-12-15T07:16:36;100677.59;;;-4.02;80.35
9009;BME280;62813;51.424;6.762;2022-12-15T07:19:02;100675.91;;;-4.02;80.61
9009;BME280;62813;51.424;6.762;2022-12-15T07:21:29;100680.19;;;-3.97;80.60
9009;BME280;62813;51.424;6.762;2022-12-15T07:23:56;100688.72;;;-3.94;80.45
9009;BME280;62813;51.424;6.762;2022-12-15T07:26:24;100689.56;;;-3.95;80.95
9009;BME280;62813;51.424;6.762;2022-12-15T07:28:51;100693.00;;;-3.90;80.55
9009;BME280;62813;51.424;6.762;2022-12-15T07:31:19;100702.28;;;-3.90;80.56
9009;BME280;62813;51.424;6.762;2022-12-15T07:33:45;100691.19;;;-3.95;80.72
9009;BME280;62813;51.424;6.762;2022-12-15T07:36:14;100699.72;;;-3.92;80.82
9009;BME280;62813;51.424;6.762;2022-12-15T07:38:40;100695.50;;;-3.93;81.06
9009;BME280;62813;51.424;6.762;2022-12-15T07:41:08;100698.03;;;-3.93;81.03
9009;BME280;62813;51.424;6.762;2022-12-15T07:43:34;100696.25;;;-3.97;81.20
9009;BME280;62813;51.424;6.762;2022-12-15T07:46:03;100705.41;;;-4.05;81.63
9009;BME280;62813;51.424;6.762;2022-12-15T07:48:30;100707.94;;;-4.05;81.86
9009;BME280;62813;51.424;6.762;2022-12-15T07:50:57;100705.44;;;-4.04;81.87
9009;BME280;62813;51.424;6.762;2022-12-15T07:53:34;100713.84;;;-4.06;81.90
9009;BME280;62813;51.424;6.762;2022-12-15T07:56:03;100716.44;;;-4.03;81.82
9009;BME280;62813;51.424;6.762;2022-12-15T07:58:34;100721.59;;;-3.97;81.63
9009;BME280;62813;51.424;6.762;2022-12-15T08:01:05;100725.03;;;-3.95;81.99
9009;BME280;62813;51.424;6.762;2022-12-15T08:03:33;100722.56;;;-3.90;81.78
9009;BME280;62813;51.424;6.762;2022-12-15T08:06:10;100719.16;;;-3.94;81.29
9009;BME280;62813;51.424;6.762;2022-12-15T08:08:37;100718.34;;;-3.90;81.71
9009;BME280;62813;51.424;6.762;2022-12-15T08:11:09;100724.25;;;-3.91;81.56
9009;BME280;62813;51.424;6.762;2022-12-15T08:13:37;100715.06;;;-3.86;81.48
9009;BME280;62813;51.424;6.762;2022-12-15T08:16:24;100720.16;;;-3.83;81.49
9009;BME280;62813;51.424;6.762;2022-12-15T08:18:51;100720.16;;;-3.84;81.18
9009;BME280;62813;51.424;6.762;2022-12-15T08:21:17;100716.75;;;-3.86;81.34
9009;BME280;62813;51.424;6.762;2022-12-15T08:23:44;100716.78;;;-3.82;81.50
9009;BME280;62813;51.424;6.762;2022-12-15T08:26:14;100716.91;;;-3.76;81.90
9009;BME280;62813;51.424;6.762;2022-12-15T08:28:41;100718.69;;;-3.70;81.67
9009;BME280;62813;51.424;6.762;2022-12-15T08:31:13;100709.47;;;-3.65;82.21
9009;BME280;62813;51.424;6.762;2022-12-15T08:33:40;100719.69;;;-3.60;81.73
9009;BME280;62813;51.424;6.762;2022-12-15T08:36:08;100713.03;;;-3.54;81.92
9009;BME280;62813;51.424;6.762;2022-12-15T08:38:37;100709.72;;;-3.48;81.72
9009;BME280;62813;51.424;6.762;2022-12-15T08:43:37;100721.75;;;-3.36;81.49
9009;BME280;62813;51.424;6.762;2022-12-15T08:46:13;100716.72;;;-3.33;81.28
9009;BME280;62813;51.424;6.762;2022-12-15T08:48:40;100715.94;;;-3.29;81.76
9009;BME280;62813;51.424;6.762;2022-12-15T08:51:06;100723.53;;;-3.31;82.17
9009;BME280;62813;51.424;6.762;2022-12-15T08:53:33;100726.97;;;-3.26;81.47
9009;BME280;62813;51.424;6.762;2022-12-15T08:56:11;100729.59;;;-3.23;81.11
9009;BME280;62813;51.424;6.762;2022-12-15T08:58:38;100736.34;;;-3.22;81.33
9009;BME280;62813;51.424;6.762;2022-12-15T09:01:12;100736.44;;;-3.15;81.62
9009;BME280;62813;51.424;6.762;2022-12-15T09:03:48;100737.34;;;-3.12;81.51
9009;BME280;62813;51.424;6.762;2022-12-15T09:06:17;100745.91;;;-3.04;82.16
9009;BME280;62813;51.424;6.762;2022-12-15T09:08:44;100751.81;;;-3.05;81.68
9009;BME280;62813;51.424;6.762;2022-12-15T09:11:16;100749.44;;;-2.96;81.65
9009;BME280;62813;51.424;6.762;2022-12-15T09:13:42;100750.31;;;-2.92;81.33
9009;BME280;62813;51.424;6.762;2022-12-15T09:16:13;100745.31;;;-2.86;81.34
9009;BME280;62813;51.424;6.762;2022-12-15T09:18:44;100753.13;;;-2.74;81.26
9009;BME280;62813;51.424;6.762;2022-12-15T09:21:12;100755.56;;;-2.80;80.76
9009;BME280;62813;51.424;6.762;2022-12-15T09:23:39;100762.31;;;-2.82;80.78
9009;BME280;62813;51.424;6.762;2022-12-15T09:26:11;100763.03;;;-2.91;80.59
9009;BME280;62813;51.424;6.762;2022-12-15T09:28:40;100768.16;;;-2.89;80.73
9009;BME280;62813;51.424;6.762;2022-12-15T09:31:20;100773.25;;;-2.86;80.71
9009;BME280;62813;51.424;6.762;2022-12-15T09:33:49;100785.78;;;-2.97;80.89
9009;BME280;62813;51.424;6.762;2022-12-15T09:36:16;100785.84;;;-2.95;80.74
9009;BME280;62813;51.424;6.762;2022-12-15T09:38:43;100781.63;;;-2.93;80.57
9009;BME280;62813;51.424;6.762;2022-12-15T09:43:50;100798.09;;;-3.24;81.64
9009;BME280;62813;51.424;6.762;2022-12-15T09:49:29;100807.38;;;-3.25;82.09
9009;BME280;62813;51.424;6.762;2022-12-15T09:52:26;100810.94;;;-3.13;81.72
9009;BME280;62813;51.424;6.762;2022-12-15T09:54:53;100810.06;;;-3.15;82.08
9009;BME280;62813;51.424;6.762;2022-12-15T09:57:36;100818.41;;;-3.24;81.94
9009;BME280;62813;51.424;6.762;2022-12-15T10:00:17;100824.03;;;-3.40;82.59
9009;BME280;62813;51.424;6.762;2022-12-15T10:08:32;100816.44;;;-3.39;83.38
9009;BME280;62813;51.424;6.762;2022-12-15T10:11:02;100823.28;;;-3.36;83.41
9009;BME280;62813;51.424;6.762;2022-12-15T10:16:32;100825.84;;;-3.35;83.48
9009;BME280;62813;51.424;6.762;2022-12-15T10:21:29;100828.47;;;-3.29;83.49
9009;BME280;62813;51.424;6.762;2022-12-15T10:24:01;100819.19;;;-3.27;83.85
9009;BME280;62813;51.424;6.762;2022-12-15T10:26:35;100815.16;;;-3.15;83.96
9009;BME280;62813;51.424;6.762;2022-12-15T10:29:11;100811.81;;;-3.11;83.60
9009;BME280;62813;51.424;6.762;2022-12-15T10:32:06;100805.97;;;-3.07;83.54
9009;BME280;62813;51.424;6.762;2022-12-15T10:34:36;100809.25;;;-3.14;83.65
9009;BME280;62813;51.424;6.762;2022-12-15T10:37:19;100810.28;;;-3.03;83.42
9009;BME280;62813;51.424;6.762;2022-12-15T10:39:48;100814.63;;;-2.96;83.24
9009;BME280;62813;51.424;6.762;2022-12-15T10:42:45;100817.16;;;-2.95;83.10
9009;BME280;62813;51.424;6.762;2022-12-15T10:45:33;100817.16;;;-2.95;83.41
9009;BME280;62813;51.424;6.762;2022-12-15T10:48:00;100808.69;;;-2.95;83.10
9009;BME280;62813;51.424;6.762;2022-12-15T10:50:29;100806.91;;;-3.01;83.68
9009;BME280;62813;51.424;6.762;2022-12-15T10:52:56;100812.84;;;-3.00;84.09
9009;BME280;62813;51.424;6.762;2022-12-15T10:58:27;100809.66;;;-2.87;84.16
9009;BME280;62813;51.424;6.762;2022-12-15T11:01:07;100810.63;;;-2.77;83.53
9009;BME280;62813;51.424;6.762;2022-12-15T11:03:37;100818.25;;;-2.79;83.63
9009;BME280;62813;51.424;6.762;2022-12-15T11:06:20;100817.53;;;-2.69;83.78
9009;BME280;62813;51.424;6.762;2022-12-15T11:08:50;100813.41;;;-2.60;83.64
9009;BME280;62813;51.424;6.762;2022-12-15T11:11:27;100809.31;;;-2.49;83.08
9009;BME280;62813;51.424;6.762;2022-12-15T11:16:52;100804.94;;;-2.61;83.28
9009;BME280;62813;51.424;6.762;2022-12-15T11:22:15;100803.94;;;-2.71;84.18
9009;BME280;62813;51.424;6.762;2022-12-15T11:24:52;100807.25;;;-2.76;84.32
9009;BME280;62813;51.424;6.762;2022-12-15T11:27:33;100808.19;;;-2.70;84.23
9009;BME280;62813;51.424;6.762;2022-12-15T11:30:17;100800.66;;;-2.64;84.22
9009;BME280;62813;51.424;6.762;2022-12-15T11:32:48;100796.50;;;-2.57;83.87
9009;BME280;62813;51.424;6.762;2022-12-15T11:35:20;100794.75;;;-2.63;84.01
9009;BME280;62813;51.424;6.762;2022-12-15T11:38:10;100795.63;;;-2.60;84.50
9009;BME280;62813;51.424;6.762;2022-12-15T11:40:42;100790.56;;;-2.59;84.36
9009;BME280;62813;51.424;6.762;2022-12-15T11:43:17;100792.19;;;-2.64;84.21
9009;BME280;62813;51.424;6.762;2022-12-15T11:46:20;100789.53;;;-2.72;84.49
9009;BME280;62813;51.424;6.762;2022-12-15T11:52:11;100779.50;;;-2.63;84.41
9009;BME280;62813;51.424;6.762;2022-12-15T11:54:53;100777.88;;;-2.59;84.12
9009;BME280;62813;51.424;6.762;2022-12-15T12:00:19;100769.66;;;-2.35;83.50
9009;BME280;62813;51.424;6.762;2022-12-15T12:02:59;100771.25;;;-2.45;83.11
9009;BME280;62813;51.424;6.762;2022-12-15T12:05:38;100767.97;;;-2.36;83.24
9009;BME280;62813;51.424;6.762;2022-12-15T12:08:22;100767.94;;;-2.39;83.25
9009;BME280;62813;51.424;6.762;2022-12-15T12:11:14;100775.69;;;-2.28;83.08
9009;BME280;62813;51.424;6.762;2022-12-15T12:16:47;100768.88;;;-2.31;83.47
9009;BME280;62813;51.424;6.762;2022-12-15T12:19:19;100769.66;;;-2.35;83.25
9009;BME280;62813;51.424;6.762;2022-12-15T12:21:51;100772.91;;;-2.48;83.94
9009;BME280;62813;51.424;6.762;2022-12-15T12:24:25;100771.25;;;-2.45;84.32
9009;BME280;62813;51.424;6.762;2022-12-15T12:29:30;100771.28;;;-2.43;84.06
9009;BME280;62813;51.424;6.762;2022-12-15T12:35:35;100773.44;;;-2.74;84.19
9009;BME280;62813;51.424;6.762;2022-12-15T12:38:05;100774.16;;;-2.82;83.89
9009;BME280;62813;51.424;6.762;2022-12-15T12:43:07;100778.22;;;-2.94;84.47
9009;BME280;62813;51.424;6.762;2022-12-15T12:45:57;100774.94;;;-2.88;84.40
9009;BME280;62813;51.424;6.762;2022-12-15T12:48:34;100770.75;;;-2.83;84.52
9009;BME280;62813;51.424;6.762;2022-12-15T12:51:26;100760.75;;;-2.71;84.12
9009;BME280;62813;51.424;6.762;2022-12-15T12:53:55;100763.41;;;-2.63;83.85
9009;BME280;62813;51.424;6.762;2022-12-15T12:58:55;100756.59;;;-2.67;84.06
9009;BME280;62813;51.424;6.762;2022-12-15T13:01:29;100752.34;;;-2.68;83.97
9009;BME280;62813;51.424;6.762;2022-12-15T13:06:58;100741.28;;;-2.72;83.93
9009;BME280;62813;51.424;6.762;2022-12-15T13:09:37;100738.47;;;-2.93;84.32
9009;BME280;62813;51.424;6.762;2022-12-15T13:15:30;100735.06;;;-2.95;84.48
9009;BME280;62813;51.424;6.762;2022-12-15T13:18:12;100724.00;;;-2.97;84.88
9009;BME280;62813;51.424;6.762;2022-12-15T13:20:41;100723.19;;;-2.96;84.76
9009;BME280;62813;51.424;6.762;2022-12-15T13:44:46;100679.72;;;-2.49;83.38
9009;BME280;62813;51.424;6.762;2022-12-15T13:47:27;100678.69;;;-2.64;83.27
9009;BME280;62813;51.424;6.762;2022-12-15T13:50:07;100676.22;;;-2.60;83.51
9009;BME280;62813;51.424;6.762;2022-12-15T13:52:48;100659.31;;;-2.55;83.50
9009;BME280;62813;51.424;6.762;2022-12-15T13:55:38;100661.88;;;-2.54;83.46
9009;BME280;62813;51.424;6.762;2022-12-15T14:00:37;100663.53;;;-2.54;83.37
9009;BME280;62813;51.424;6.762;2022-12-15T14:03:05;100658.50;;;-2.53;83.54
9009;BME280;62813;51.424;6.762;2022-12-15T14:05:32;100668.69;;;-2.50;83.27
9009;BME280;62813;51.424;6.762;2022-12-15T14:08:00;100665.31;;;-2.47;83.16
9009;BME280;62813;51.424;6.762;2022-12-15T14:10:42;100667.91;;;-2.44;83.33
9009;BME280;62813;51.424;6.762;2022-12-15T14:13:13;100662.00;;;-2.43;83.39
9009;BME280;62813;51.424;6.762;2022-12-15T14:15:48;100665.44;;;-2.40;82.98
9009;BME280;62813;51.424;6.762;2022-12-15T14:18:31;100662.00;;;-2.40;83.15
9009;BME280;62813;51.424;6.762;2022-12-15T14:20:58;100662.84;;;-2.41;83.14
9009;BME280;62813;51.424;6.762;2022-12-15T14:23:27;100665.38;;;-2.41;83.19
9009;BME280;62813;51.424;6.762;2022-12-15T14:26:07;100673.00;;;-2.41;83.24
9009;BME280;62813;51.424;6.762;2022-12-15T14:28:45;100677.25;;;-2.42;83.18
9009;BME280;62813;51.424;6.762;2022-12-15T14:31:23;100672.16;;;-2.42;83.15
9009;BME280;62813;51.424;6.762;2022-12-15T14:33:57;100667.06;;;-2.42;83.20
9009;BME280;62813;51.424;6.762;2022-12-15T14:36:26;100661.16;;;-2.42;83.03
9009;BME280;62813;51.424;6.762;2022-12-15T14:38:57;100647.59;;;-2.41;82.86
9009;BME280;62813;51.424;6.762;2022-12-15T14:41:28;100647.59;;;-2.43;83.06
9009;BME280;62813;51.424;6.762;2022-12-15T14:47:07;100648.41;;;-2.45;83.06
9009;BME280;62813;51.424;6.762;2022-12-15T14:49:43;100644.19;;;-2.46;82.96
9009;BME280;62813;51.424;6.762;2022-12-15T14:52:25;100641.66;;;-2.45;82.87
9009;BME280;62813;51.424;6.762;2022-12-15T14:54:58;100640.78;;;-2.45;82.84
9009;BME280;62813;51.424;6.762;2022-12-15T14:57:46;100645.88;;;-2.47;82.92
9009;BME280;62813;51.424;6.762;2022-12-15T15:03:54;100636.50;;;-2.48;83.05
9009;BME280;62813;51.424;6.762;2022-12-15T15:05:54;100639.03;;;-2.49;83.06
9009;BME280;62813;51.424;6.762;2022-12-15T15:08:29;100633.97;;;-2.49;83.34
9009;BME280;62813;51.424;6.762;2022-12-15T15:11:28;100633.09;;;-2.53;82.97
9009;BME280;62813;51.424;6.762;2022-12-15T15:14:04;100627.16;;;-2.52;83.25
9009;BME280;62813;51.424;6.762;2022-12-15T15:16:33;100615.25;;;-2.54;83.25
9009;BME280;62813;51.424;6.762;2022-12-15T15:19:01;100615.25;;;-2.54;83.27
9009;BME280;62813;51.424;6.762;2022-12-15T15:21:29;100623.72;;;-2.55;83.46
9009;BME280;62813;51.424;6.762;2022-12-15T15:26:28;100622.88;;;-2.57;83.16
9009;BME280;62813;51.424;6.762;2022-12-15T15:28:55;100626.25;;;-2.58;83.26
9009;BME280;62813;51.424;6.762;2022-12-15T15:31:26;100630.47;;;-2.60;83.04
9009;BME280;62813;51.424;6.762;2022-12-15T15:33:55;100642.28;;;-2.63;83.21
9009;BME280;62813;51.424;6.762;2022-12-15T15:36:31;100647.34;;;-2.66;83.20
9009;BME280;62813;51.424;6.762;2022-12-15T15:38:59;100645.66;;;-2.67;83.19